Tiempo atmosférico en la estación meteorológica de Carmona, Sevilla (50 m.)



Fecha
DESCASC
Temp. máxima en grados centígrados (hora)
DESCASC
Temp. mínima en grados centígrados (hora)
DESCASC
Temp. media en grados centígrados
DESCASC
Racha de viento máxima en m/sg (hora)
DESCASC
Velocidad máxima media en intervalos de 10 minutos(hora)
DESCASC
Precipitaciones diarias en mm
DESCASC
Precipitaciones de 00:00 a 06:00 en mm
DESCASC
Precipitaciones de 06:00 a 12:00 en mm
DESCASC
Precipitaciones de 12:00 a 18:00 en mm
DESCASC
Precipitaciones de 18:00 a 24:00 en mm
DESCASC
27-01-2020 13.8 (14:10) 5.5 (05:40) 9.7 5.28 (12:20) 3.33 (11:50) 0 0 0 0 0
26-01-2020 15.5 (18:00) 5.2 (09:00) 10.3 4.17 (15:50) 2.78 (21:00) 0 0 0 0 0
25-01-2020 13 (16:10) 9.4 (00:00) 11.2 4.72 (08:20) 3.06 (08:20) 7.8 2.6 4.6 0.4 0.2
24-01-2020 13.9 (13:00) 9.7 (00:00) 11.8 8.61 (20:20) 5.83 (20:20) 13 0.2 0.2 2.2 10.4
23-01-2020 12.8 (14:40) 8.9 (00:00) 10.8 7.78 (14:40) 4.72 (08:00) 15.4 1 7.6 0.8 6
22-01-2020 11.7 (14:00) 7.9 (00:00) 9.8 8.06 (02:50) 5.28 (02:50) 16 2.8 6 1.4 5.8
21-01-2020 12.7 (16:40) 5.8 (00:00) 9.3 8.06 (14:00) 4.72 (13:40) 0 0 0 0 0
20-01-2020 13.5 (16:00) 4.6 (00:00) 9 13.89 (12:20) 8.89 (12:20) 0 0 0 0 0
19-01-2020 17.2 (15:20) 7.8 (00:00) 12.5 16.39 (20:00) 10 (20:00) 0 0 0 0 0
18-01-2020 13.4 (22:10) 8.3 (00:00) 10.8 6.39 (23:59) 4.72 (23:59) 7.4 0 3.8 3.4 0.2
17-01-2020 17.5 (17:30) 8.6 (00:00) 13.1 4.44 (10:30) 3.06 (10:30) 0 0 0 0 0
16-01-2020 18.7 (16:20) 6.6 (00:00) 12.7 7.78 (11:40) 5.28 (11:40) 0 0 0 0 0
15-01-2020 16.9 (15:50) 5 (00:00) 10.9 8.06 (09:50) 5.28 (11:00) 0 0 0 0 0
14-01-2020 14.6 (15:20) 3.6 (00:00) 9.1 5.83 (11:40) 3.89 (11:10) 0 0 0 0 0
13-01-2020 15.3 (15:10) 1.9 (00:00) 8.6 6.11 (11:50) 3.89 (12:10) 0 0 0 0 0
12-01-2020 16.7 (16:50) 2 (07:40) 9.4 5.83 (11:00) 4.17 (11:50) 0 0 0 0 0
11-01-2020 16.4 (16:10) 3.3 (00:00) 9.8 10.28 (12:50) 6.39 (12:50) 0 0 0 0 0
10-01-2020 16.4 (15:20) 3 (00:00) 9.7 5.83 (15:30) 3.89 (15:30) 0 0 0 0 0
09-01-2020 15.6 (15:50) 3 (00:00) 9.3 4.72 (15:20) 3.06 (15:20) 0 0 0 0 0
08-01-2020 18.2 (15:40) 3.4 (00:00) 10.8 6.11 (11:20) 4.17 (11:10) 0 0 0 0 0
07-01-2020 17.9 (16:50) 4 (00:00) 10.9 7.5 (14:50) 5 (11:40) 0 0 0 0 0
06-01-2020 16 (16:40) 3.8 (00:00) 9.9 5.28 (12:10) 3.61 (12:10) 0 0 0 0 0
05-01-2020 16 (15:50) 5.8 (00:00) 10.9 8.61 (12:50) 5.83 (12:10) 0 0 0 0 0
04-01-2020 14.5 (15:50) 4.1 (00:00) 9.3 7.78 (11:50) 5 (12:00) 0 0 0 0 0
03-01-2020 14.9 (16:30) 5.7 (00:00) 10.3 4.72 (12:40) 3.06 (11:30) 0 0 0 0 0
02-01-2020 16.4 (16:10) 4.5 (00:00) 10.4 6.39 (11:30) 4.72 (11:30) 0 0 0 0 0
01-01-2020 16.6 (16:10) 4.9 (00:00) 10.8 6.67 (12:20) 4.72 (12:20) 0 0 0 0 0
31-12-2019 17 (16:20) 5.5 (00:00) 11.3 8.33 (12:40) 5.56 (12:30) 0 0 0 0 0
30-12-2019 -- (--) -- (--) -- -- (--) -- (--) -- 0 0 0 --

Gráficas

Temp. máximas Temp. mínimas Temp. medias Precipitaciones Rachas de viento máximas Velocidades máximas media en intervalos de 10 minutos

Datos horarios

Fecha y hora oficial Temperatura (ºC) Velocidad del viento (km/h) Dirección del viento Racha (km/h) Dirección de racha Precipitación (mm) Presión (hPa) Tendencia (hPa) Humedad (%)
2020-01-28 23:00:00 10.6 5 Este 9 Sudeste 0 -- -- 91
2020-01-28 22:00:00 11.3 7 Este 9 Este 0 -- -- 90
2020-01-28 21:00:00 12.2 5 Nordeste 6 Nordeste 0 -- -- 88
2020-01-28 20:00:00 13.2 3 Norte 6 Nordeste 0 -- -- 87
2020-01-28 19:00:00 14.2 6 Sudoeste 10 Sudoeste 0 -- -- 85
2020-01-28 18:00:00 14.9 3 Oeste 9 Oeste 0 -- -- 83
2020-01-28 17:00:00 15.1 4 Oeste 9 Oeste 0 -- -- 80
2020-01-28 16:00:00 15.2 6 Oeste 9 Oeste 0 -- -- 80
2020-01-28 15:00:00 15 6 Oeste 12 Oeste 0 -- -- 79
2020-01-28 14:00:00 14.7 0 Calma 5 Sudeste 0 -- -- 80
2020-01-28 13:00:00 13.9 3 Noroeste 7 Noroeste 0 -- -- 84
2020-01-28 12:00:00 13 3 Sudeste 9 Sudeste 0 -- -- 88
2020-01-28 11:00:00 11.9 6 Sudeste 11 Sudeste 0 -- -- 93
2020-01-28 10:00:00 11.1 6 Sudeste 9 Sudeste 0 -- -- 93
2020-01-28 09:00:00 10.5 5 Este 6 Sudeste 0 -- -- 93
2020-01-28 08:00:00 10.5 5 Sudeste 10 Este 0 -- -- 93
2020-01-28 07:00:00 10.2 4 Este 8 Este 0 -- -- 93
2020-01-28 06:00:00 10 4 Este 9 Este 0 -- -- 92
2020-01-28 05:00:00 9.9 6 Este 10 Este 0 -- -- 92
2020-01-28 04:00:00 10.6 5 Nordeste 9 Este 0 -- -- 91
2020-01-28 03:00:00 11.2 5 Nordeste 9 Este 0 -- -- 91
2020-01-28 02:00:00 11.3 5 Este 7 Nordeste 0 -- -- 90
2020-01-28 01:00:00 11.6 4 Este 6 Este 0 -- -- 90
2020-01-28 00:00:00 11.5 3 Este 4 Sudeste 0 -- -- 90
2020-01-27 23:00:00 11.5 3 Nordeste 5 Norte 0 -- -- 89
2020-01-27 22:00:00 11.7 4 Este 8 Nordeste 0 -- -- 88
2020-01-27 21:00:00 12.1 4 Sudeste 5 Sudeste 0 -- -- 87
2020-01-27 20:00:00 12.3 3 Este 8 Este 0 -- -- 85
2020-01-27 19:00:00 12.9 4 Este 5 Este 0 -- -- 81
2020-01-27 18:00:00 13.5 0 Calma 4 Sudoeste 0 -- -- 77
2020-01-27 17:00:00 13.6 0 Calma 6 Sur 0 -- -- 74
2020-01-27 16:00:00 13.6 2 Nordeste 8 Este 0 -- -- 75
2020-01-27 15:00:00 13.2 4 Este 10 Este 0 -- -- 74
2020-01-27 14:00:00 13.5 7 Nordeste 15 Este 0 -- -- 73
2020-01-27 13:00:00 11.4 9 Este 19 Este 0 -- -- 84
2020-01-27 12:00:00 9.7 10 Este 18 Nordeste 0 -- -- 94
2020-01-27 11:00:00 8.4 9 Nordeste 18 Nordeste 0 -- -- 94
2020-01-27 10:00:00 6.4 9 Este 14 Este 0 -- -- 94
2020-01-27 09:00:00 5.8 4 Nordeste 11 Este 0 -- -- 94
2020-01-27 08:00:00 5.6 8 Este 12 Este 0 -- -- 94
2020-01-27 07:00:00 5.8 5 Nordeste 13 Este 0 -- -- 93
2020-01-27 06:00:00 5.5 7 Este 10 Este 0 -- -- 93
2020-01-27 05:00:00 6 6 Nordeste 12 Este 0 -- -- 93
2020-01-27 04:00:00 6.7 9 Este 14 Nordeste 0 -- -- 93
2020-01-27 03:00:00 6.9 5 Nordeste 11 Nordeste 0 -- -- 92
2020-01-27 02:00:00 7.4 3 Nordeste 12 Este 0 -- -- 91
2020-01-27 01:00:00 7.9 9 Nordeste 13 Nordeste 0 -- -- 91
2020-01-27 00:00:00 8.6 4 Nordeste 9 Este 0 -- -- 91
2020-01-26 23:00:00 9 6 Este 9 Este 0 -- -- 90
2020-01-26 22:00:00 10.1 7 Este 14 Este 0 -- -- 88
2020-01-26 21:00:00 11 10 Este 15 Este 0 -- -- 86
2020-01-26 20:00:00 13 6 Este 8 Este 0 -- -- 79
2020-01-26 19:00:00 14.2 4 Sudoeste 12 Sudoeste 0 -- -- 70
2020-01-26 18:00:00 15.5 5 Sudoeste 9 Sudoeste 0 -- -- 61
2020-01-26 17:00:00 14.8 7 Sudoeste 13 Sudoeste 0 -- -- 65
2020-01-26 16:00:00 15.3 7 Sudoeste 15 Oeste 0 -- -- 65
2020-01-26 15:00:00 14.8 5 Sudoeste 12 Sur 0 -- -- 67
2020-01-26 14:00:00 13.8 2 Oeste 8 Oeste 0 -- -- 75
2020-01-26 13:00:00 11.8 2 Norte 8 Noroeste 0 -- -- 89
2020-01-26 12:00:00 9.3 2 Noroeste 6 Nordeste 0 -- -- 94
2020-01-26 11:00:00 7.6 3 Sudeste 5 Sudeste 0 -- -- 94
2020-01-26 10:00:00 6 0 Calma 4 Este 0 -- -- 94
2020-01-26 09:00:00 5.2 0 Calma 3 Este 0 -- -- 94
2020-01-26 08:00:00 5.7 0 Calma 3 Norte 0 -- -- 93
2020-01-26 07:00:00 6.2 0 Calma 4 Noroeste 0 -- -- 93
2020-01-26 06:00:00 6.6 3 Noroeste 4 Sudoeste 0 -- -- 92
2020-01-26 05:00:00 8.1 3 Oeste 5 Sudoeste 0 -- -- 93
2020-01-26 04:00:00 8.8 0 Calma 3 Sur 0 -- -- 93
2020-01-26 03:00:00 8.9 0 Calma 4 Sur 0 -- -- 93
2020-01-26 02:00:00 8.5 3 Sudoeste 4 Oeste 0 -- -- 92
2020-01-26 01:00:00 9.3 2 Sur 3 Sur 0 -- -- 92
2020-01-26 00:00:00 9.8 0 Calma 4 Oeste 0 -- -- 92
2020-01-25 23:00:00 9.9 4 Oeste 4 Oeste 0.2 -- -- 91
2020-01-25 22:00:00 10.1 0 Calma 5 Sudoeste 0 -- -- 90
2020-01-25 21:00:00 11 3 Sudoeste 7 Sudoeste 0 -- -- 89
2020-01-25 20:00:00 11.8 4 Sur 6 Sudoeste 0 -- -- 90
2020-01-25 19:00:00 12.3 3 Este 5 Sudeste 0 -- -- 89
2020-01-25 18:00:00 12.7 3 Norte 7 Norte 0 -- -- 87
2020-01-25 17:00:00 12.7 5 Norte 9 Noroeste 0.4 -- -- 87
2020-01-25 16:00:00 12.9 6 Sudoeste 11 Sur 0 -- -- 81
2020-01-25 15:00:00 12.6 5 Sur 12 Sudeste 0 -- -- 83
2020-01-25 14:00:00 12.3 8 Sur 14 Sudeste 0 -- -- 85
2020-01-25 13:00:00 11.9 9 Sudeste 15 Sudeste 0 -- -- 90
2020-01-25 12:00:00 11 9 Sudeste 14 Este 0.2 -- -- 92
2020-01-25 11:00:00 10.4 8 Sudeste 14 Sudeste 1.2 -- -- 93
2020-01-25 10:00:00 10.1 10 Sudeste 15 Sudeste 0.4 -- -- 93
2020-01-25 09:00:00 9.9 10 Este 17 Este 1 -- -- 93
2020-01-25 08:00:00 9.7 8 Este 13 Este 0 -- -- 93
2020-01-25 07:00:00 9.6 8 Este 10 Este 1.8 -- -- 92
2020-01-25 06:00:00 9.7 5 Este 8 Este 1.4 -- -- 92
2020-01-25 05:00:00 9.6 5 Sudoeste 13 Este 1 -- -- 92
2020-01-25 04:00:00 9.7 9 Este 12 Este 0.2 -- -- 92
2020-01-25 03:00:00 9.7 8 Este 15 Sudeste 0 -- -- 92
2020-01-25 02:00:00 9.6 7 Este 10 Sudeste 0 -- -- 92
2020-01-25 01:00:00 9.7 4 Nordeste 7 Sudeste 0 -- -- 91
2020-01-25 00:00:00 10.5 5 Sur 13 Sudeste 0 -- -- 92
2020-01-24 23:00:00 10.9 9 Sudeste 17 Sudeste 0 -- -- 91
2020-01-24 22:00:00 11.2 12 Este 29 Sudeste 0 -- -- 91
2020-01-24 21:00:00 11 18 Este 31 Este 3.4 -- -- 91
2020-01-24 20:00:00 11.1 18 Este 27 Este 3.8 -- -- 90
2020-01-24 19:00:00 11.6 15 Este 25 Sudeste 3.2 -- -- 89
2020-01-24 18:00:00 12 8 Este 15 Este 1 -- -- 88
2020-01-24 17:00:00 12.5 11 Este 24 Sudeste 1 -- -- 85
2020-01-24 16:00:00 13.4 10 Este 19 Este 0.2 -- -- 81
2020-01-24 15:00:00 13.8 12 Este 22 Este 0 -- -- 78
2020-01-24 14:00:00 13.9 17 Este 26 Este 0 -- -- 75
2020-01-24 13:00:00 13.9 18 Este 26 Este 0 -- -- 78
2020-01-24 12:00:00 12 14 Este 23 Este 0 -- -- 84
2020-01-24 11:00:00 11.2 15 Este 22 Este 0 -- -- 88
2020-01-24 10:00:00 10.1 12 Este 22 Este 0 -- -- 90
2020-01-24 09:00:00 9.8 13 Este 22 Este 0 -- -- 88
2020-01-24 08:00:00 9.8 14 Este 23 Este 0 -- -- 90
2020-01-24 07:00:00 9.9 11 Este 16 Este 0.2 -- -- 92
2020-01-24 06:00:00 10 9 Este 15 Este 0 -- -- 93
2020-01-24 05:00:00 10 10 Este 15 Este 0 -- -- 93
2020-01-24 04:00:00 10 10 Este 16 Este 0 -- -- 93
2020-01-24 03:00:00 10 10 Este 14 Este 0 -- -- 93
2020-01-24 02:00:00 10 6 Nordeste 11 Este 0 -- -- 93
2020-01-24 01:00:00 10 7 Este 15 Este 0.2 -- -- 93
2020-01-24 00:00:00 10.4 8 Este 10 Este 0.2 -- -- 93
2020-01-23 23:00:00 10.6 6 Sudeste 14 Este 0.6 -- -- 92
2020-01-23 22:00:00 10.8 10 Este 17 Este 2.2 -- -- 92
2020-01-23 21:00:00 10.9 6 Este 11 Este 1.8 -- -- 91
2020-01-23 20:00:00 11 6 Este 9 Este 0.2 -- -- 90
2020-01-23 19:00:00 11.1 2 Sudoeste 19 Sudoeste 1 -- -- 88
2020-01-23 18:00:00 11.1 8 Este 11 Sudeste 0 -- -- 89
2020-01-23 17:00:00 10.9 5 Nordeste 15 Sur 0.2 -- -- 87
2020-01-23 16:00:00 10.8 5 Nordeste 17 Oeste 0 -- -- 87
2020-01-23 15:00:00 11.1 13 Oeste 28 Oeste 0.2 -- -- 86
2020-01-23 14:00:00 12 11 Este 15 Este 0 -- -- 89
2020-01-23 13:00:00 11.6 12 Este 18 Este 0.4 -- -- 91
2020-01-23 12:00:00 10.3 9 Este 17 Este 0.2 -- -- 92
2020-01-23 11:00:00 9.3 12 Este 18 Este 1.6 -- -- 91
2020-01-23 10:00:00 9.1 3 Este 22 Este 1.4 -- -- 91
2020-01-23 09:00:00 9 15 Este 27 Este 0.6 -- -- 91
2020-01-23 08:00:00 8.9 17 Este 26 Este 2.6 -- -- 91
2020-01-23 07:00:00 9.1 14 Este 24 Este 1.2 -- -- 91
2020-01-23 06:00:00 9 13 Este 19 Este 0.4 -- -- 90
2020-01-23 05:00:00 9.1 11 Este 17 Este 0 -- -- 90
2020-01-23 04:00:00 9.3 12 Este 20 Este 0 -- -- 91
2020-01-23 03:00:00 9.5 13 Este 21 Este 0.2 -- -- 91
2020-01-23 02:00:00 9.4 10 Este 15 Este 0.2 -- -- 91
2020-01-23 01:00:00 9.4 10 Este 16 Este 0.2 -- -- 91
2020-01-23 00:00:00 9.5 9 Este 14 Este 0.2 -- -- 92
2020-01-22 23:00:00 9.6 8 Este 13 Este 0 -- -- 92
2020-01-22 22:00:00 9.6 6 Nordeste 9 Nordeste 0.4 -- -- 91
2020-01-22 21:00:00 9.8 4 Nordeste 6 Sur 0.6 -- -- 90
2020-01-22 20:00:00 10 6 Sudoeste 24 Sudoeste 3.8 -- -- 90
2020-01-22 19:00:00 10.3 14 Sudoeste 25 Sudoeste 0.8 -- -- 90
2020-01-22 18:00:00 10.4 3 Norte 8 Norte 0 -- -- 89
2020-01-22 17:00:00 10.7 4 Nordeste 21 Oeste 1 -- -- 88
2020-01-22 16:00:00 11.4 5 Oeste 16 Sudoeste 0.4 -- -- 85
2020-01-22 15:00:00 11.5 13 Este 21 Nordeste 0 -- -- 82
2020-01-22 14:00:00 11.7 14 Este 24 Este 0 -- -- 83
2020-01-22 13:00:00 10.4 12 Este 21 Este 0 -- -- 92
2020-01-22 12:00:00 9.2 11 Nordeste 20 Este 0.2 -- -- 92
2020-01-22 11:00:00 8.4 14 Este 21 Este 1.4 -- -- 92
2020-01-22 10:00:00 8.3 12 Este 17 Este 2.6 -- -- 92
2020-01-22 09:00:00 8.3 10 Este 17 Este 0.6 -- -- 91
2020-01-22 08:00:00 8.3 10 Este 17 Este 0.2 -- -- 92
2020-01-22 07:00:00 8.2 13 Este 25 Este 1 -- -- 92
2020-01-22 06:00:00 8 14 Este 22 Este 1 -- -- 91
2020-01-22 05:00:00 8 12 Este 23 Este 1 -- -- 91
2020-01-22 04:00:00 8 14 Este 27 Este 0.6 -- -- 89
2020-01-22 03:00:00 8.4 18 Este 29 Este 0.2 -- -- 86
2020-01-22 02:00:00 8.8 15 Este 26 Este 0 -- -- 78
2020-01-22 01:00:00 8.9 14 Este 24 Este 0 -- -- 74
2020-01-22 00:00:00 7.9 5 Nordeste 8 Nordeste 0 -- -- 79
2020-01-21 23:00:00 8.2 4 Nordeste 8 Este 0 -- -- 76
2020-01-21 22:00:00 8.8 6 Nordeste 9 Nordeste 0 -- -- 72
2020-01-21 21:00:00 9.6 5 Nordeste 14 Este 0 -- -- 68
2020-01-21 20:00:00 10.2 7 Nordeste 13 Nordeste 0 -- -- 65
2020-01-21 19:00:00 11 5 Nordeste 18 Nordeste 0 -- -- 63
2020-01-21 18:00:00 11.8 8 Nordeste 19 Nordeste 0 -- -- 58
2020-01-21 17:00:00 12.4 13 Nordeste 22 Nordeste 0 -- -- 54
2020-01-21 16:00:00 12.4 14 Nordeste 23 Norte 0 -- -- 53
2020-01-21 15:00:00 11.9 12 Norte 26 Nordeste 0 -- -- 55
2020-01-21 14:00:00 11.9 16 Nordeste 29 Nordeste 0 -- -- 54
2020-01-21 13:00:00 12.4 6 Este 11 Este 0 -- -- 54
2020-01-21 12:00:00 11.5 4 Norte 9 Norte 0 -- -- 58
2020-01-21 11:00:00 8.8 4 Noroeste 7 Noroeste 0 -- -- 66
2020-01-21 10:00:00 7 4 Sudeste 6 Nordeste 0 -- -- 75
2020-01-21 09:00:00 6.1 3 Nordeste 15 Este 0 -- -- 74
2020-01-21 08:00:00 6.2 8 Nordeste 11 Nordeste 0 -- -- 75
2020-01-21 07:00:00 7.2 3 Nordeste 10 Nordeste 0 -- -- 72
2020-01-21 06:00:00 7.9 4 Nordeste 12 Este 0 -- -- 69
2020-01-21 05:00:00 7.7 4 Nordeste 9 Este 0 -- -- 73
2020-01-21 04:00:00 8.1 7 Nordeste 12 Nordeste 0 -- -- 69
2020-01-21 03:00:00 7.9 8 Este 9 Este 0 -- -- 70
2020-01-21 02:00:00 9.1 5 Nordeste 21 Nordeste 0 -- -- 63
2020-01-21 01:00:00 10.2 13 Nordeste 27 Nordeste 0 -- -- 58
2020-01-21 00:00:00 10.5 15 Nordeste 35 Nordeste 0 -- -- 57
2020-01-20 23:00:00 10.5 19 Nordeste 33 Nordeste 0 -- -- 57
2020-01-20 22:00:00 10.5 14 Nordeste 24 Nordeste 0 -- -- 58
2020-01-20 21:00:00 10.3 13 Nordeste 28 Este 0 -- -- 57
2020-01-20 20:00:00 10.2 14 Nordeste 26 Nordeste 0 -- -- 55
2020-01-20 19:00:00 11.2 14 Nordeste 30 Nordeste 0 -- -- 51
2020-01-20 18:00:00 12 15 Nordeste 26 Nordeste 0 -- -- 50
2020-01-20 17:00:00 12.3 17 Este 45 Este 0 -- -- 48
2020-01-20 16:00:00 13.5 22 Este 44 Este 0 -- -- 44
2020-01-20 15:00:00 12.5 24 Nordeste 48 Este 0 -- -- 45
2020-01-20 14:00:00 11.6 26 Nordeste 50 Este 0 -- -- 44
2020-01-20 13:00:00 11.4 30 Nordeste 50 Nordeste 0 -- -- 43
2020-01-20 12:00:00 9.8 28 Nordeste 48 Nordeste 0 -- -- 48
2020-01-20 11:00:00 8.5 20 Nordeste 33 Nordeste 0 -- -- 52
2020-01-20 10:00:00 6.1 12 Este 17 Este 0 -- -- 63
2020-01-20 09:00:00 4.8 6 Este 14 Este 0 -- -- 67
2020-01-20 08:00:00 4.7 8 Este 10 Este 0 -- -- 65
2020-01-20 07:00:00 5.3 5 Sudeste 26 Este 0 -- -- 64
2020-01-20 06:00:00 6.5 6 Este 20 Nordeste 0 -- -- 56
2020-01-20 05:00:00 7 4 Este 22 Nordeste 0 -- -- 57
2020-01-20 04:00:00 7.8 11 Nordeste 29 Nordeste 0 -- -- 55
2020-01-20 03:00:00 8.5 16 Nordeste 32 Nordeste 0 -- -- 52
2020-01-20 02:00:00 8.8 20 Nordeste 41 Nordeste 0 -- -- 53
2020-01-20 01:00:00 9.1 22 Nordeste 37 Nordeste 0 -- -- 55
2020-01-20 00:00:00 9.7 21 Nordeste 44 Nordeste 0 -- -- 53
2020-01-19 23:00:00 10.4 28 Nordeste 50 Nordeste 0 -- -- 49
2020-01-19 22:00:00 10.4 20 Nordeste 42 Nordeste 0 -- -- 56
2020-01-19 21:00:00 11 24 Nordeste 53 Nordeste 0 -- -- 55
2020-01-19 20:00:00 12.8 36 Nordeste 59 Nordeste 0 -- -- 43
2020-01-19 19:00:00 12.9 10 Nordeste 29 Nordeste 0 -- -- 51
2020-01-19 18:00:00 13.6 15 Nordeste 40 Nordeste 0 -- -- 49
2020-01-19 17:00:00 15.4 24 Nordeste 38 Nordeste 0 -- -- 46
2020-01-19 16:00:00 15.7 18 Norte 42 Norte 0 -- -- 47
2020-01-19 15:00:00 16.8 23 Norte 41 Norte 0 -- -- 46
2020-01-19 14:00:00 16.6 21 Norte 33 Norte 0 -- -- 50
2020-01-19 13:00:00 15.1 13 Noroeste 25 Noroeste 0 -- -- 61
2020-01-19 12:00:00 13.8 17 Noroeste 28 Noroeste 0 -- -- 68
2020-01-19 11:00:00 12.3 13 Noroeste 20 Oeste 0 -- -- 75
2020-01-19 10:00:00 9.8 9 Oeste 13 Oeste 0 -- -- 84
2020-01-19 09:00:00 8.6 6 Sur 12 Sudoeste 0 -- -- 88
2020-01-19 08:00:00 7.9 4 Sur 12 Oeste 0 -- -- 85
2020-01-19 07:00:00 8.6 9 Oeste 19 Oeste 0 -- -- 83
2020-01-19 06:00:00 8.6 6 Oeste 15 Oeste 0 -- -- 87
2020-01-19 05:00:00 9.5 9 Oeste 22 Oeste 0 -- -- 90
2020-01-19 04:00:00 10.3 9 Oeste 15 Oeste 0 -- -- 90
2020-01-19 03:00:00 10.3 7 Oeste 19 Oeste 0 -- -- 90
2020-01-19 02:00:00 10.8 13 Oeste 23 Oeste 0 -- -- 92
2020-01-19 01:00:00 11.6 10 Noroeste 23 Sudoeste 0 -- -- 93
2020-01-19 00:00:00 12.2 17 Oeste 23 Sudoeste 0.2 -- -- 94
2020-01-18 23:00:00 12.4 11 Oeste 15 Oeste 0 -- -- 93
2020-01-18 22:00:00 13.1 6 Oeste 13 Sudoeste 0 -- -- 94
2020-01-18 21:00:00 12.2 3 Sudeste 7 Este 0 -- -- 93
2020-01-18 20:00:00 11.8 5 Este 10 Norte 0 -- -- 93
2020-01-18 19:00:00 11.9 4 Nordeste 9 Nordeste 0 -- -- 93
2020-01-18 18:00:00 11.8 3 Sudeste 10 Nordeste 0.6 -- -- 93
2020-01-18 17:00:00 11.8 6 Nordeste 9 Nordeste 0.2 -- -- 93
2020-01-18 16:00:00 11.7 5 Este 12 Este 0.2 -- -- 93
2020-01-18 15:00:00 11.5 5 Nordeste 12 Nordeste 0.6 -- -- 92
2020-01-18 14:00:00 11 7 Nordeste 13 Este 1.2 -- -- 92
2020-01-18 13:00:00 11 9 Este 13 Este 0.6 -- -- 92
2020-01-18 12:00:00 10.6 7 Este 12 Este 1 -- -- 92
2020-01-18 11:00:00 10.1 5 Nordeste 18 Sudeste 1.4 -- -- 91
2020-01-18 10:00:00 9.7 12 Este 18 Este 1.2 -- -- 90
2020-01-18 09:00:00 9.8 10 Este 16 Este 0.2 -- -- 89
2020-01-18 08:00:00 9.4 10 Este 16 Este 0 -- -- 90
2020-01-18 07:00:00 9 8 Este 12 Este 0 -- -- 91
2020-01-18 06:00:00 9.2 9 Este 18 Este 0 -- -- 91
2020-01-18 05:00:00 8.8 6 Este 11 Este 0 -- -- 91
2020-01-18 04:00:00 8.7 5 Este 7 Este 0 -- -- 91
2020-01-18 03:00:00 8.8 5 Este 8 Sudeste 0 -- -- 91
2020-01-18 02:00:00 8.5 2 Este 6 Este 0 -- -- 90
2020-01-18 01:00:00 8.4 2 Este 7 Nordeste 0 -- -- 89
2020-01-18 00:00:00 8.6 3 Nordeste 6 Este 0 -- -- 87
2020-01-17 23:00:00 9.7 2 Este 8 Sudeste 0 -- -- 87
2020-01-17 22:00:00 10.2 3 Nordeste 8 Este 0 -- -- 85
2020-01-17 21:00:00 10.9 7 Este 9 Este 0 -- -- 84
2020-01-17 20:00:00 12 8 Nordeste 9 Nordeste 0 -- -- 81
2020-01-17 19:00:00 14.3 6 Oeste 7 Oeste 0 -- -- 74
2020-01-17 18:00:00 16.4 2 Nordeste 4 Este 0 -- -- 67
2020-01-17 17:00:00 17.1 2 Oeste 9 Sudeste 0 -- -- 64
2020-01-17 16:00:00 16.6 4 Sudeste 12 Este 0 -- -- 64
2020-01-17 15:00:00 16.2 6 Este 14 Este 0 -- -- 65
2020-01-17 14:00:00 14.9 7 Este 13 Este 0 -- -- 71
2020-01-17 13:00:00 14 7 Este 12 Nordeste 0 -- -- 72
2020-01-17 12:00:00 13.1 8 Este 14 Este 0 -- -- 77
2020-01-17 11:00:00 11.5 8 Este 16 Este 0 -- -- 73
2020-01-17 10:00:00 10.3 8 Este 15 Este 0 -- -- 80
2020-01-17 09:00:00 9.6 5 Este 12 Este 0 -- -- 86
2020-01-17 08:00:00 9.7 7 Este 10 Este 0 -- -- 84
2020-01-17 07:00:00 9.9 8 Este 15 Este 0 -- -- 83
2020-01-17 06:00:00 9.9 11 Este 15 Este 0 -- -- 83
2020-01-17 05:00:00 9.5 8 Este 14 Nordeste 0 -- -- 83
2020-01-17 04:00:00 9.6 6 Este 12 Este 0 -- -- 84
2020-01-17 03:00:00 9.5 8 Este 12 Este 0 -- -- 87
2020-01-17 02:00:00 9 4 Sur 11 Nordeste 0 -- -- 87
2020-01-17 01:00:00 9.6 3 Nordeste 7 Norte 0 -- -- 85
2020-01-17 00:00:00 10.2 4 Sur 8 Sudeste 0 -- -- 85
2020-01-16 23:00:00 9.6 5 Sudoeste 7 Sur 0 -- -- 82
2020-01-16 22:00:00 10.9 5 Sur 9 Sudoeste 0 -- -- 73
2020-01-16 21:00:00 12.6 7 Sudoeste 14 Sudoeste 0 -- -- 65
2020-01-16 20:00:00 12.9 11 Sudoeste 14 Sudoeste 0 -- -- 60
2020-01-16 19:00:00 14.3 8 Sur 13 Sudoeste 0 -- -- 54
2020-01-16 18:00:00 16.8 6 Sudoeste 18 Sudoeste 0 -- -- 43
2020-01-16 17:00:00 18.2 10 Sudoeste 18 Sudoeste 0 -- -- 37
2020-01-16 16:00:00 18.5 6 Sudoeste 15 Sudoeste 0 -- -- 41
2020-01-16 15:00:00 18.2 0 Calma 10 Este 0 -- -- 41
2020-01-16 14:00:00 16.2 8 Este 19 Este 0 -- -- 47
2020-01-16 13:00:00 14.3 15 Este 22 Nordeste 0 -- -- 56
2020-01-16 12:00:00 12.6 17 Este 28 Este 0 -- -- 61
2020-01-16 11:00:00 10 13 Este 25 Este 0 -- -- 70
2020-01-16 10:00:00 8.2 17 Este 24 Este 0 -- -- 78
2020-01-16 09:00:00 6.7 12 Este 22 Este 0 -- -- 85
2020-01-16 08:00:00 7 14 Este 20 Este 0 -- -- 88
2020-01-16 07:00:00 6.9 10 Este 17 Este 0 -- -- 88
2020-01-16 06:00:00 7.8 10 Este 18 Este 0 -- -- 87
2020-01-16 05:00:00 8 7 Este 14 Este 0 -- -- 87
2020-01-16 04:00:00 8.7 9 Este 17 Este 0 -- -- 85
2020-01-16 03:00:00 9.8 11 Este 18 Este 0 -- -- 83
2020-01-16 02:00:00 10.3 8 Este 14 Este 0 -- -- 83
2020-01-16 01:00:00 10.2 10 Este 12 Este 0 -- -- 83
2020-01-16 00:00:00 11.4 8 Este 10 Este 0 -- -- 79
2020-01-15 23:00:00 11.6 6 Este 13 Este 0 -- -- 79
2020-01-15 22:00:00 11.3 8 Este 11 Este 0 -- -- 80
2020-01-15 21:00:00 12.1 6 Sudeste 10 Este 0 -- -- 80
2020-01-15 20:00:00 13.4 9 Este 11 Este 0 -- -- 73
2020-01-15 19:00:00 14.5 5 Este 8 Este 0 -- -- 68
2020-01-15 18:00:00 15.5 6 Este 14 Este 0 -- -- 64
2020-01-15 17:00:00 16.1 7 Nordeste 17 Este 0 -- -- 61
2020-01-15 16:00:00 16.8 13 Este 19 Este 0 -- -- 57
2020-01-15 15:00:00 15.9 14 Este 21 Este 0 -- -- 59
2020-01-15 14:00:00 14.3 13 Este 22 Este 0 -- -- 61
2020-01-15 13:00:00 12.7 15 Este 24 Este 0 -- -- 62
2020-01-15 12:00:00 10.3 15 Este 26 Este 0 -- -- 69
2020-01-15 11:00:00 8.7 19 Este 27 Este 0 -- -- 74
2020-01-15 10:00:00 7.3 18 Este 29 Este 0 -- -- 77
2020-01-15 09:00:00 5.4 14 Este 22 Este 0 -- -- 87
2020-01-15 08:00:00 5 12 Este 19 Este 0 -- -- 87
2020-01-15 07:00:00 5.6 10 Este 20 Este 0 -- -- 85
2020-01-15 06:00:00 6.1 13 Este 22 Este 0 -- -- 85
2020-01-15 05:00:00 6.3 13 Este 19 Este 0 -- -- 86
2020-01-15 04:00:00 6.4 11 Este 18 Este 0 -- -- 86
2020-01-15 03:00:00 6.6 10 Este 17 Este 0 -- -- 87
2020-01-15 02:00:00 6.7 9 Este 13 Este 0 -- -- 88
2020-01-15 01:00:00 6.9 10 Este 12 Este 0 -- -- 86
2020-01-15 00:00:00 7.2 7 Este 11 Este 0 -- -- 86
2020-01-14 23:00:00 8 5 Este 8 Sudeste 0 -- -- 83
2020-01-14 22:00:00 8.5 8 Sudeste 9 Sudeste 0 -- -- 82
2020-01-14 21:00:00 9.3 5 Sudeste 7 Sudeste 0 -- -- 80
2020-01-14 20:00:00 11.2 2 Sudeste 5 Sudeste 0 -- -- 72
2020-01-14 19:00:00 12.6 2 Norte 5 Noroeste 0 -- -- 67
2020-01-14 18:00:00 13.4 3 Oeste 7 Oeste 0 -- -- 62
2020-01-14 17:00:00 14.3 6 Oeste 12 Oeste 0 -- -- 55
2020-01-14 16:00:00 14.4 2 Sur 12 Oeste 0 -- -- 58
2020-01-14 15:00:00 14.5 3 Oeste 11 Sudeste 0 -- -- 58
2020-01-14 14:00:00 13.5 6 Este 13 Este 0 -- -- 60
2020-01-14 13:00:00 11.6 10 Este 20 Este 0 -- -- 63
2020-01-14 12:00:00 9.7 13 Este 21 Este 0 -- -- 70
2020-01-14 11:00:00 8.1 13 Este 20 Este 0 -- -- 78
2020-01-14 10:00:00 5.1 7 Nordeste 13 Este 0 -- -- 93
2020-01-14 09:00:00 4.1 9 Este 13 Nordeste 0 -- -- 92
2020-01-14 08:00:00 4.2 6 Nordeste 10 Nordeste 0 -- -- 91
2020-01-14 07:00:00 4.2 6 Nordeste 10 Nordeste 0 -- -- 91
2020-01-14 06:00:00 4.5 7 Nordeste 12 Nordeste 0 -- -- 91
2020-01-14 05:00:00 4.5 7 Nordeste 13 Este 0 -- -- 90
2020-01-14 04:00:00 5.1 10 Este 14 Este 0 -- -- 91
2020-01-14 03:00:00 4.4 9 Este 11 Este 0 -- -- 90
2020-01-14 02:00:00 3.9 5 Este 10 Este 0 -- -- 89
2020-01-14 01:00:00 4.4 7 Este 9 Este 0 -- -- 89
2020-01-14 00:00:00 5.1 4 Norte 8 Este 0 -- -- 87
2020-01-13 23:00:00 5.6 6 Este 8 Nordeste 0 -- -- 86
2020-01-13 22:00:00 6.5 4 Nordeste 9 Nordeste 0 -- -- 84
2020-01-13 21:00:00 7.7 5 Sudeste 9 Sudeste 0 -- -- 79
2020-01-13 20:00:00 8.9 5 Sudeste 6 Sudeste 0 -- -- 75
2020-01-13 19:00:00 11.7 4 Sur 6 Sur 0 -- -- 68
2020-01-13 18:00:00 13.9 5 Sudoeste 9 Sudoeste 0 -- -- 58
2020-01-13 17:00:00 15.2 4 Oeste 11 Oeste 0 -- -- 52
2020-01-13 16:00:00 15.2 3 Sur 8 Sur 0 -- -- 51
2020-01-13 15:00:00 15 4 Nordeste 10 Sudeste 0 -- -- 50
2020-01-13 14:00:00 13.6 6 Sudeste 15 Este 0 -- -- 56
2020-01-13 13:00:00 12 10 Este 19 Este 0 -- -- 61
2020-01-13 12:00:00 10 11 Este 22 Nordeste 0 -- -- 66
2020-01-13 11:00:00 6.9 10 Este 17 Nordeste 0 -- -- 78
2020-01-13 10:00:00 4.3 8 Nordeste 13 Nordeste 0 -- -- 91
2020-01-13 09:00:00 1.9 7 Este 13 Este 0 -- -- 91
2020-01-13 08:00:00 2.1 10 Este 14 Este 0 -- -- 90
2020-01-13 07:00:00 2.4 7 Este 13 Este 0 -- -- 90
2020-01-13 06:00:00 2.2 8 Nordeste 12 Nordeste 0 -- -- 90
2020-01-13 05:00:00 2.3 5 Nordeste 10 Este 0 -- -- 89
2020-01-13 04:00:00 3.2 8 Este 11 Este 0 -- -- 89
2020-01-13 03:00:00 3.5 10 Este 12 Este 0 -- -- 88
2020-01-13 02:00:00 4.1 8 Este 10 Este 0 -- -- 87
2020-01-13 01:00:00 4.3 5 Nordeste 8 Este 0 -- -- 85
2020-01-13 00:00:00 5.3 4 Nordeste 12 Nordeste 0 -- -- 85
2020-01-12 23:00:00 5.8 4 Nordeste 10 Norte 0 -- -- 83
2020-01-12 22:00:00 6.3 3 Nordeste 5 Nordeste 0 -- -- 81
2020-01-12 21:00:00 8.3 4 Nordeste 6 Nordeste 0 -- -- 75
2020-01-12 20:00:00 9 4 Sudeste 4 Sudeste 0 -- -- 73
2020-01-12 19:00:00 12 2 Este -- -- 0 -- -- 62
2020-01-12 18:00:00 15 3 Sudeste 12 Sudeste 0 -- -- 47
2020-01-12 17:00:00 16.5 5 Sudeste 12 Este 0 -- -- 44
2020-01-12 16:00:00 16.4 6 Sudeste 10 Sudeste 0 -- -- 43
2020-01-12 15:00:00 15.8 5 Este 13 Este 0 -- -- 49
2020-01-12 14:00:00 14.1 8 Este 18 Este 0 -- -- 55
2020-01-12 13:00:00 12.2 13 Este 19 Este 0 -- -- 60
2020-01-12 12:00:00 10.3 13 Este 21 Este 0 -- -- 65
2020-01-12 11:00:00 7.3 12 Este 21 Este 0 -- -- 76
2020-01-12 10:00:00 4.6 10 Este 17 Nordeste 0 -- -- 91
2020-01-12 09:00:00 2.2 8 Este 9 Este 0 -- -- 91
2020-01-12 08:00:00 2.1 7 Este 8 Nordeste 0 -- -- 90
2020-01-12 07:00:00 2.1 6 Nordeste 10 Este 0 -- -- 89
2020-01-12 06:00:00 2.7 8 Este 10 Este 0 -- -- 89
2020-01-12 05:00:00 2.8 7 Este 10 Este 0 -- -- 89
2020-01-12 04:00:00 3.2 6 Este 8 Este 0 -- -- 88
2020-01-12 03:00:00 3.6 4 Este 10 Este 0 -- -- 87
2020-01-12 02:00:00 4.2 8 Este 10 Este 0 -- -- 85
2020-01-12 01:00:00 5.1 6 Nordeste 9 Este 0 -- -- 83
2020-01-12 00:00:00 5.3 8 Este 10 Norte 0 -- -- 80
2020-01-11 23:00:00 5.8 3 Nordeste 8 Nordeste 0 -- -- 78
2020-01-11 22:00:00 6.9 5 Norte 10 Nordeste 0 -- -- 75
2020-01-11 21:00:00 7.5 3 Norte 5 Norte 0 -- -- 74
2020-01-11 20:00:00 9 4 Sudeste 6 Sudeste 0 -- -- 67
2020-01-11 19:00:00 11.5 3 Sur 5 Este 0 -- -- 56
2020-01-11 18:00:00 14.8 6 Este 10 Este 0 -- -- 44
2020-01-11 17:00:00 16.3 5 Este 11 Este 0 -- -- 38
2020-01-11 16:00:00 16.3 7 Este 17 Este 0 -- -- 40
2020-01-11 15:00:00 15.5 13 Este 29 Este 0 -- -- 41
2020-01-11 14:00:00 14.6 18 Este 31 Este 0 -- -- 45
2020-01-11 13:00:00 13.3 22 Este 37 Este 0 -- -- 48
2020-01-11 12:00:00 11.2 14 Este 21 Este 0 -- -- 58
2020-01-11 11:00:00 8.5 11 Este 16 Este 0 -- -- 66
2020-01-11 10:00:00 6.4 9 Nordeste 13 Este 0 -- -- 72
2020-01-11 09:00:00 3.8 9 Este 13 Este 0 -- -- 81
2020-01-11 08:00:00 3.7 12 Este 14 Este 0 -- -- 81
2020-01-11 07:00:00 3.8 9 Este 11 Este 0 -- -- 80
2020-01-11 06:00:00 4.4 3 Este 9 Sudeste 0 -- -- 78
2020-01-11 05:00:00 4.4 7 Sudeste 10 Sudeste 0 -- -- 80
2020-01-11 04:00:00 4.9 7 Sudeste 11 Este 0 -- -- 77
2020-01-11 03:00:00 4.8 5 Nordeste 9 Este 0 -- -- 78
2020-01-11 02:00:00 4.9 3 Nordeste 7 Nordeste 0 -- -- 78
2020-01-11 01:00:00 6.2 5 Norte 9 Norte 0 -- -- 71
2020-01-11 00:00:00 7 8 Norte 12 Norte 0 -- -- 68
2020-01-10 23:00:00 7.4 5 Nordeste 12 Norte 0 -- -- 68
2020-01-10 22:00:00 8.5 8 Nordeste 14 Nordeste 0 -- -- 65
2020-01-10 21:00:00 9.4 9 Nordeste 12 Nordeste 0 -- -- 66
2020-01-10 20:00:00 11.5 8 Nordeste 16 Nordeste 0 -- -- 59
2020-01-10 19:00:00 12.3 4 Noroeste 9 Norte 0 -- -- 68
2020-01-10 18:00:00 15 7 Noroeste 9 Noroeste 0 -- -- 60
2020-01-10 17:00:00 16.2 3 Nordeste 16 Este 0 -- -- 54
2020-01-10 16:00:00 16.1 12 Este 21 Este 0 -- -- 53
2020-01-10 15:00:00 16.1 10 Este 17 Nordeste 0 -- -- 54
2020-01-10 14:00:00 15 7 Este 15 Nordeste 0 -- -- 52
2020-01-10 13:00:00 14.4 7 Norte 16 Noroeste 0 -- -- 52
2020-01-10 12:00:00 10.7 8 Noroeste 13 Noroeste 0 -- -- 93
2020-01-10 11:00:00 7.5 2 Este 8 Este 0 -- -- 94
2020-01-10 10:00:00 5.6 8 Este 14 Este 0 -- -- 93
2020-01-10 09:00:00 5 7 Este 11 Nordeste 0 -- -- 93
2020-01-10 08:00:00 3.3 8 Este 12 Este 0 -- -- 92
2020-01-10 07:00:00 3.5 3 Este 5 Este 0 -- -- 91
2020-01-10 06:00:00 4.6 0 Calma 4 Nordeste 0 -- -- 91
2020-01-10 05:00:00 4.4 0 Calma 8 Sudoeste 0 -- -- 91
2020-01-10 04:00:00 5.4 3 Sur 8 Sudoeste 0 -- -- 91
2020-01-10 03:00:00 5.1 0 Calma 6 Nordeste 0 -- -- 89
2020-01-10 02:00:00 5.7 0 Calma 4 Este 0 -- -- 89
2020-01-10 01:00:00 6.3 4 Norte 6 Norte 0 -- -- 89
2020-01-10 00:00:00 7 4 Sudeste 6 Sudeste 0 -- -- 88
2020-01-09 23:00:00 7.5 3 Sudeste 6 Nordeste 0 -- -- 87
2020-01-09 22:00:00 8.2 4 Nordeste 5 Nordeste 0 -- -- 85
2020-01-09 21:00:00 9.3 4 Noroeste 9 Sudoeste 0 -- -- 81
2020-01-09 20:00:00 10.9 8 Sudoeste 10 Sur 0 -- -- 76
2020-01-09 19:00:00 12.3 7 Sudoeste 9 Sudoeste 0 -- -- 70
2020-01-09 18:00:00 14.3 6 Sudoeste 13 Sudoeste 0 -- -- 64
2020-01-09 17:00:00 15.4 8 Sudoeste 14 Sudoeste 0 -- -- 60
2020-01-09 16:00:00 15.6 8 Oeste 17 Noroeste 0 -- -- 58
2020-01-09 15:00:00 15.2 8 Sudoeste 14 Sudoeste 0 -- -- 58
2020-01-09 14:00:00 14.3 8 Noroeste 13 Noroeste 0 -- -- 63
2020-01-09 13:00:00 13 3 Oeste 11 Este 0 -- -- 68
2020-01-09 12:00:00 10.4 7 Este 14 Este 0 -- -- 72
2020-01-09 11:00:00 7.4 9 Este 14 Este 0 -- -- 84
2020-01-09 10:00:00 5.1 6 Este 10 Este 0 -- -- 92
2020-01-09 09:00:00 3.1 9 Este 12 Este 0 -- -- 92
2020-01-09 08:00:00 3.3 7 Este 11 Este 0 -- -- 91
2020-01-09 07:00:00 3.6 5 Este 9 Este 0 -- -- 91
2020-01-09 06:00:00 3.5 7 Sudeste 10 Este 0 -- -- 91
2020-01-09 05:00:00 3.5 3 Nordeste 10 Nordeste 0 -- -- 90
2020-01-09 04:00:00 4 7 Este 9 Este 0 -- -- 89
2020-01-09 03:00:00 4.6 5 Este 8 Nordeste 0 -- -- 88
2020-01-09 02:00:00 5.5 5 Este 11 Este 0 -- -- 87
2020-01-09 01:00:00 5.7 9 Este 11 Este 0 -- -- 88
2020-01-09 00:00:00 6.2 3 Nordeste 6 Nordeste 0 -- -- 86
2020-01-08 23:00:00 6.9 5 Este 7 Nordeste 0 -- -- 85
2020-01-08 22:00:00 7.5 6 Este 8 Sudeste 0 -- -- 82
2020-01-08 21:00:00 8.4 5 Sudeste 7 Sudeste 0 -- -- 80
2020-01-08 20:00:00 10.1 2 Sudeste 3 Sudeste 0 -- -- 75
2020-01-08 19:00:00 13.8 0 Calma 6 Sur 0 -- -- 63
2020-01-08 18:00:00 16.9 3 Sur 7 Este 0 -- -- 51
2020-01-08 17:00:00 18.2 5 Este 12 Este 0 -- -- 43
2020-01-08 16:00:00 18.1 5 Este 13 Este 0 -- -- 44
2020-01-08 15:00:00 17.6 6 Este 10 Este 0 -- -- 48
2020-01-08 14:00:00 16.1 3 Este 12 Este 0 -- -- 53
2020-01-08 13:00:00 13.7 8 Este 13 Este 0 -- -- 60
2020-01-08 12:00:00 10.8 10 Este 22 Este 0 -- -- 66
2020-01-08 11:00:00 8.2 14 Este 20 Este 0 -- -- 77
2020-01-08 10:00:00 5.8 12 Este 19 Este 0 -- -- 89
2020-01-08 09:00:00 3.6 9 Este 13 Este 0 -- -- 91
2020-01-08 08:00:00 3.8 8 Este 14 Este 0 -- -- 91
2020-01-08 07:00:00 3.9 10 Este 17 Este 0 -- -- 91
2020-01-08 06:00:00 4.2 8 Este 13 Este 0 -- -- 90
2020-01-08 05:00:00 4.7 8 Este 13 Este 0 -- -- 90
2020-01-08 04:00:00 4.8 10 Este 12 Este 0 -- -- 89
2020-01-08 03:00:00 5.3 8 Este 12 Este 0 -- -- 88
2020-01-08 02:00:00 5.9 10 Este 11 Este 0 -- -- 88
2020-01-08 01:00:00 6 10 Este 10 Este 0 -- -- 88
2020-01-08 00:00:00 6.5 6 Nordeste 8 Nordeste 0 -- -- 86
2020-01-07 23:00:00 6.6 4 Este 5 Este 0 -- -- 85
2020-01-07 22:00:00 7.6 2 Este 5 Sudeste 0 -- -- 84
2020-01-07 21:00:00 8.4 4 Este 6 Nordeste 0 -- -- 81
2020-01-07 20:00:00 10.6 5 Nordeste 6 Nordeste 0 -- -- 75
2020-01-07 19:00:00 12.6 4 Este 5 Este 0 -- -- 69
2020-01-07 18:00:00 16.5 4 Este 9 Este 0 -- -- 53
2020-01-07 17:00:00 17.9 6 Este 15 Este 0 -- -- 46
2020-01-07 16:00:00 17.5 10 Este 23 Este 0 -- -- 44
2020-01-07 15:00:00 16.5 15 Este 27 Este 0 -- -- 48
2020-01-07 14:00:00 15.2 14 Este 24 Nordeste 0 -- -- 54
2020-01-07 13:00:00 13 12 Este 24 Este 0 -- -- 64
2020-01-07 12:00:00 10.8 16 Este 25 Este 0 -- -- 72
2020-01-07 11:00:00 8.5 10 Nordeste 19 Nordeste 0 -- -- 86
2020-01-07 10:00:00 6 10 Nordeste 15 Nordeste 0 -- -- 92
2020-01-07 09:00:00 4.6 9 Este 16 Nordeste 0 -- -- 92
2020-01-07 08:00:00 4 6 Nordeste 15 Nordeste 0 -- -- 92
2020-01-07 07:00:00 4.3 6 Nordeste 15 Nordeste 0 -- -- 92
2020-01-07 06:00:00 4.3 4 Nordeste 10 Nordeste 0 -- -- 91
2020-01-07 05:00:00 4.9 3 Este 14 Este 0 -- -- 91
2020-01-07 04:00:00 4.6 8 Este 12 Este 0 -- -- 91
2020-01-07 03:00:00 5.3 5 Este 12 Este 0 -- -- 90
2020-01-07 02:00:00 6.1 10 Este 12 Este 0 -- -- 90
2020-01-07 01:00:00 6.5 8 Este 10 Sudeste 0 -- -- 89
2020-01-07 00:00:00 6.5 7 Nordeste 9 Nordeste 0 -- -- 89
2020-01-06 23:00:00 7 7 Nordeste 8 Nordeste 0 -- -- 88
2020-01-06 22:00:00 7.7 4 Este 9 Nordeste 0 -- -- 86
2020-01-06 21:00:00 8.4 6 Nordeste 7 Norte 0 -- -- 85
2020-01-06 20:00:00 9.4 4 Noroeste 8 Noroeste 0 -- -- 82
2020-01-06 19:00:00 11.6 3 Este 6 Este 0 -- -- 75
2020-01-06 18:00:00 14.6 5 Este 7 Este 0 -- -- 64
2020-01-06 17:00:00 15.9 4 Sudeste 15 Sudeste 0 -- -- 56
2020-01-06 16:00:00 15.9 9 Este 16 Este 0 -- -- 56
2020-01-06 15:00:00 15.1 9 Este 18 Este 0 -- -- 59
2020-01-06 14:00:00 14.1 9 Este 15 Este 0 -- -- 62
2020-01-06 13:00:00 12.7 9 Este 19 Este 0 -- -- 68
2020-01-06 12:00:00 10.3 11 Nordeste 17 Nordeste 0 -- -- 76
2020-01-06 11:00:00 7.4 9 Nordeste 13 Nordeste 0 -- -- 90
2020-01-06 10:00:00 5.3 9 Este 15 Este 0 -- -- 93